PWSweather.com
Personal Weather Stations
Station Observations
NAGEO265NE
Bedzin GrodziecPL 42-506

Bedzin GrodziecPL 42-506

Lat: 50.347, Lon: 19.079

Elevation: 948

Station Type: WH1080

http://www.meteo-grodziec.pl/

Latest ConditionsUpdated 6:15:02 AM GMT+01:01 Friday, Jun 23, 2017
Currently Today's Max Today's Min Today's Average
Temperature 64.6°F18.1°C 71.8°F22.1°C 62.8°F17.1°C 65.2°F18.4°C
Dew Point 61.9°F16.6°C 62.1°F16.7°C 55.6°F13.1°C 60.0°F15.6°C
Winds 2.0 mph SW3.2 kmh SW 4.0 mph WNW6.4 kmh WNW - 1.3 mph 2.1 kmh
Wind Gusts 6.0 mph9.7 kmh 16.0 mph25.7 kmh - -
Humidity 91% 94% 59% 84%
Pressure 29.69 in1005.4 mb 29.82 in1009.8 mb 29.68 in1005.1 mb -
Precipitation - 0.09 in2.3 mm - -
Hour Temp Dew Point Humidity Winds Wind Gusts Pressure Precip Precip Rate Daily Precip Total
06:15 AM 64.6°F18.1°C 61.9°F16.6°C 91% 2.0 mph SW3.2 kmh SW 6.0 mph9.7 kmh 29.69 in1005.4 mb 0.00 in0.0 mm 0.00 in0.0 mm 0.09 in2.3 mm
06:10 AM 64.4°F18.0°C 62.1°F16.7°C 92% 2.0 mph SW3.2 kmh SW 6.0 mph9.7 kmh 29.70 in1005.8 mb 0.00 in0.0 mm 0.00 in0.0 mm 0.09 in2.3 mm
06:05 AM 64.2°F17.9°C 61.9°F16.6°C 92% 2.0 mph SW3.2 kmh SW 6.0 mph9.7 kmh 29.70 in1005.8 mb 0.00 in0.0 mm 0.00 in0.0 mm 0.09 in2.3 mm
06:00 AM 63.9°F17.7°C 61.5°F16.4°C 92% 2.0 mph SW3.2 kmh SW 6.0 mph9.7 kmh 29.70 in1005.8 mb 0.00 in0.0 mm 0.00 in0.0 mm 0.09 in2.3 mm
05:55 AM 63.5°F17.5°C 61.5°F16.4°C 93% 2.0 mph SW3.2 kmh SW 5.0 mph8.0 kmh 29.70 in1005.8 mb 0.00 in0.0 mm 0.00 in0.0 mm 0.09 in2.3 mm
05:50 AM 63.3°F17.4°C 61.5°F16.4°C 94% 1.0 mph SW1.6 kmh SW 5.0 mph8.0 kmh 29.70 in1005.8 mb 0.00 in0.0 mm 0.00 in0.0 mm 0.09 in2.3 mm
05:45 AM 63.1°F17.3°C 61.3°F16.3°C 94% 2.0 mph SW3.2 kmh SW 5.0 mph8.0 kmh 29.68 in1005.1 mb 0.00 in0.0 mm 0.00 in0.0 mm 0.09 in2.3 mm
05:40 AM 63.0°F17.2°C 61.2°F16.2°C 94% 3.0 mph SSW4.8 kmh SSW 7.0 mph11.3 kmh 29.70 in1005.8 mb 0.00 in0.0 mm 0.00 in0.0 mm 0.09 in2.3 mm
05:35 AM 62.8°F17.1°C 61.0°F16.1°C 94% 3.0 mph SW4.8 kmh SW 7.0 mph11.3 kmh 29.70 in1005.8 mb 0.00 in0.0 mm 0.00 in0.0 mm 0.09 in2.3 mm
05:30 AM 62.8°F17.1°C 61.0°F16.1°C 94% 2.0 mph SW3.2 kmh SW 6.0 mph9.7 kmh 29.70 in1005.8 mb 0.00 in0.0 mm 0.00 in0.0 mm 0.09 in2.3 mm
05:25 AM 62.8°F17.1°C 61.0°F16.1°C 94% 2.0 mph SW3.2 kmh SW 5.0 mph8.0 kmh 29.72 in1006.4 mb 0.00 in0.0 mm 0.00 in0.0 mm 0.09 in2.3 mm
05:20 AM 62.8°F17.1°C 61.0°F16.1°C 94% 2.0 mph SW3.2 kmh SW 5.0 mph8.0 kmh 29.72 in1006.4 mb 0.00 in0.0 mm 0.00 in0.0 mm 0.09 in2.3 mm
05:15 AM 62.8°F17.1°C 61.0°F16.1°C 94% 1.0 mph SW1.6 kmh SW 3.0 mph4.8 kmh 29.72 in1006.4 mb 0.00 in0.0 mm 0.00 in0.0 mm 0.09 in2.3 mm
05:10 AM 62.8°F17.1°C 61.0°F16.1°C 94% 1.0 mph SW1.6 kmh SW 2.0 mph3.2 kmh 29.72 in1006.4 mb 0.01 in0.3 mm 0.00 in0.0 mm 0.09 in2.3 mm
05:05 AM 62.8°F17.1°C 61.0°F16.1°C 94% 2.0 mph SW3.2 kmh SW 5.0 mph8.0 kmh 29.73 in1006.8 mb 0.01 in0.3 mm 0.00 in0.0 mm 0.09 in2.3 mm
05:00 AM 62.8°F17.1°C 61.0°F16.1°C 94% 3.0 mph SW4.8 kmh SW 5.0 mph8.0 kmh 29.74 in1007.1 mb 0.01 in0.3 mm 0.00 in0.0 mm 0.09 in2.3 mm
04:55 AM 62.8°F17.1°C 61.0°F16.1°C 94% 2.0 mph SW3.2 kmh SW 5.0 mph8.0 kmh 29.75 in1007.5 mb 0.02 in0.5 mm 0.00 in0.0 mm 0.09 in2.3 mm
04:50 AM 63.0°F17.2°C 60.8°F16.0°C 93% 1.0 mph W1.6 kmh W 4.0 mph6.4 kmh 29.76 in1007.8 mb 0.02 in0.5 mm 0.00 in0.0 mm 0.09 in2.3 mm
04:45 AM 63.0°F17.2°C 61.0°F16.1°C 93% 1.0 mph NW1.6 kmh NW 4.0 mph6.4 kmh 29.76 in1007.8 mb 0.02 in0.5 mm 0.00 in0.0 mm 0.09 in2.3 mm
04:40 AM 63.0°F17.2°C 61.0°F16.1°C 93% 2.0 mph WSW3.2 kmh WSW 7.0 mph11.3 kmh 29.75 in1007.5 mb 0.02 in0.5 mm 0.00 in0.0 mm 0.09 in2.3 mm
04:35 AM 63.0°F17.2°C 60.8°F16.0°C 93% 3.0 mph SW4.8 kmh SW 8.0 mph12.9 kmh 29.75 in1007.5 mb 0.02 in0.5 mm 0.00 in0.0 mm 0.09 in2.3 mm
04:30 AM 63.0°F17.2°C 61.0°F16.1°C 93% 3.0 mph SW4.8 kmh SW 8.0 mph12.9 kmh 29.75 in1007.5 mb 0.02 in0.5 mm 0.00 in0.0 mm 0.09 in2.3 mm
04:25 AM 63.0°F17.2°C 61.0°F16.1°C 93% 2.0 mph SW3.2 kmh SW 5.0 mph8.0 kmh 29.74 in1007.1 mb 0.02 in0.5 mm 0.00 in0.0 mm 0.09 in2.3 mm
04:20 AM 63.1°F17.3°C 60.8°F16.0°C 92% 1.0 mph SW1.6 kmh SW 5.0 mph8.0 kmh 29.75 in1007.5 mb 0.02 in0.5 mm 0.00 in0.0 mm 0.09 in2.3 mm
04:15 AM 63.1°F17.3°C 60.8°F16.0°C 92% 1.0 mph SW1.6 kmh SW 5.0 mph8.0 kmh 29.74 in1007.1 mb 0.02 in0.5 mm 0.00 in0.0 mm 0.09 in2.3 mm
04:10 AM 63.3°F17.4°C 61.0°F16.1°C 92% Calm Calm 2.0 mph3.2 kmh 29.75 in1007.5 mb 0.02 in0.5 mm 0.00 in0.0 mm 0.08 in2.0 mm
04:05 AM 63.3°F17.4°C 61.0°F16.1°C 92% Calm Calm 2.0 mph3.2 kmh 29.76 in1007.8 mb 0.02 in0.5 mm 0.12 in3.0 mm 0.08 in2.0 mm
04:00 AM 63.5°F17.5°C 61.2°F16.2°C 92% Calm Calm 1.0 mph1.6 kmh 29.77 in1008.1 mb 0.01 in0.3 mm 0.00 in0.0 mm 0.07 in1.8 mm
03:55 AM 63.7°F17.6°C 61.0°F16.1°C 91% Calm Calm 2.0 mph3.2 kmh 29.77 in1008.1 mb 0.01 in0.3 mm 0.00 in0.0 mm 0.07 in1.8 mm
03:50 AM 63.7°F17.6°C 61.0°F16.1°C 91% Calm Calm 3.0 mph4.8 kmh 29.77 in1008.1 mb 0.01 in0.3 mm 0.00 in0.0 mm 0.07 in1.8 mm
03:45 AM 63.9°F17.7°C 61.2°F16.2°C 91% Calm Calm 3.0 mph4.8 kmh 29.77 in1008.1 mb 0.01 in0.3 mm 0.00 in0.0 mm 0.07 in1.8 mm
03:40 AM 64.0°F17.8°C 61.3°F16.3°C 91% 1.0 mph W1.6 kmh W 6.0 mph9.7 kmh 29.77 in1008.1 mb 0.01 in0.3 mm 0.00 in0.0 mm 0.07 in1.8 mm
03:35 AM 63.7°F17.6°C 61.3°F16.3°C 92% 2.0 mph WNW3.2 kmh WNW 6.0 mph9.7 kmh 29.78 in1008.5 mb 0.01 in0.3 mm 0.12 in3.0 mm 0.07 in1.8 mm
03:30 AM 63.3°F17.4°C 61.2°F16.2°C 93% 1.0 mph WNW1.6 kmh WNW 3.0 mph4.8 kmh 29.78 in1008.5 mb 0.00 in0.0 mm 0.00 in0.0 mm 0.06 in1.5 mm
03:25 AM 63.1°F17.3°C 61.2°F16.2°C 93% 1.0 mph WSW1.6 kmh WSW 3.0 mph4.8 kmh 29.77 in1008.1 mb 0.00 in0.0 mm 0.00 in0.0 mm 0.06 in1.5 mm
03:20 AM 63.0°F17.2°C 61.0°F16.1°C 93% 2.0 mph SW3.2 kmh SW 4.0 mph6.4 kmh 29.77 in1008.1 mb 0.00 in0.0 mm 0.00 in0.0 mm 0.06 in1.5 mm
03:15 AM 63.1°F17.3°C 61.0°F16.1°C 93% 1.0 mph SW1.6 kmh SW 4.0 mph6.4 kmh 29.77 in1008.1 mb 0.00 in0.0 mm 0.00 in0.0 mm 0.06 in1.5 mm
03:10 AM 63.3°F17.4°C 61.0°F16.1°C 92% Calm Calm 2.0 mph3.2 kmh 29.76 in1007.8 mb 0.00 in0.0 mm 0.00 in0.0 mm 0.06 in1.5 mm
03:05 AM 63.3°F17.4°C 61.0°F16.1°C 92% Calm Calm -- 29.75 in1007.5 mb 0.00 in0.0 mm 0.00 in0.0 mm 0.06 in1.5 mm
03:00 AM 63.3°F17.4°C 61.0°F16.1°C 92% Calm Calm 1.0 mph1.6 kmh 29.75 in1007.5 mb 0.00 in0.0 mm 0.00 in0.0 mm 0.06 in1.5 mm
02:55 AM 63.3°F17.4°C 61.0°F16.1°C 92% Calm Calm 1.0 mph1.6 kmh 29.75 in1007.5 mb 0.01 in0.3 mm 0.00 in0.0 mm 0.06 in1.5 mm
02:50 AM 63.3°F17.4°C 60.8°F16.0°C 91% Calm Calm 1.0 mph1.6 kmh 29.75 in1007.5 mb 0.02 in0.5 mm 0.00 in0.0 mm 0.06 in1.5 mm
02:45 AM 63.3°F17.4°C 60.8°F16.0°C 91% Calm Calm -- 29.75 in1007.5 mb 0.02 in0.5 mm 0.00 in0.0 mm 0.06 in1.5 mm
02:40 AM 63.5°F17.5°C 60.4°F15.8°C 90% Calm Calm 2.0 mph3.2 kmh 29.75 in1007.5 mb 0.03 in0.8 mm 0.00 in0.0 mm 0.06 in1.5 mm
02:35 AM 63.7°F17.6°C 60.8°F16.0°C 90% Calm Calm 2.0 mph3.2 kmh 29.76 in1007.8 mb 0.03 in0.8 mm 0.00 in0.0 mm 0.06 in1.5 mm
02:30 AM 63.9°F17.7°C 60.6°F15.9°C 89% Calm Calm 1.0 mph1.6 kmh 29.76 in1007.8 mb 0.03 in0.8 mm 0.00 in0.0 mm 0.06 in1.5 mm
02:25 AM 63.9°F17.7°C 60.4°F15.8°C 89% Calm Calm 1.0 mph1.6 kmh 29.77 in1008.1 mb 0.04 in1.0 mm 0.00 in0.0 mm 0.06 in1.5 mm
02:20 AM 64.0°F17.8°C 60.4°F15.8°C 88% Calm Calm 3.0 mph4.8 kmh 29.78 in1008.5 mb 0.06 in1.5 mm 0.00 in0.0 mm 0.06 in1.5 mm
02:15 AM 64.0°F17.8°C 60.1°F15.6°C 87% 1.0 mph NW1.6 kmh NW 4.0 mph6.4 kmh 29.78 in1008.5 mb 0.06 in1.5 mm 0.00 in0.0 mm 0.06 in1.5 mm
02:10 AM 64.2°F17.9°C 60.3°F15.7°C 87% 1.0 mph NW1.6 kmh NW 5.0 mph8.0 kmh 29.79 in1008.8 mb 0.06 in1.5 mm 0.00 in0.0 mm 0.06 in1.5 mm
02:05 AM 64.6°F18.1°C 60.6°F15.9°C 87% 1.0 mph WNW1.6 kmh WNW 6.0 mph9.7 kmh 29.80 in1009.1 mb 0.06 in1.5 mm 0.00 in0.0 mm 0.06 in1.5 mm
02:00 AM 64.9°F18.3°C 60.6°F15.9°C 86% 2.0 mph NW3.2 kmh NW 9.0 mph14.5 kmh 29.81 in1009.5 mb 0.06 in1.5 mm 0.00 in0.0 mm 0.06 in1.5 mm
01:55 AM 65.1°F18.4°C 60.4°F15.8°C 85% 3.0 mph NW4.8 kmh NW 9.0 mph14.5 kmh 29.81 in1009.5 mb 0.06 in1.5 mm 0.24 in6.1 mm 0.06 in1.5 mm
01:50 AM 65.3°F18.5°C 60.3°F15.7°C 84% 3.0 mph WNW4.8 kmh WNW 7.0 mph11.3 kmh 29.82 in1009.8 mb 0.04 in1.0 mm 0.00 in0.0 mm 0.04 in1.0 mm
01:45 AM 65.5°F18.6°C 60.3°F15.7°C 83% 3.0 mph WNW4.8 kmh WNW 9.0 mph14.5 kmh 29.82 in1009.8 mb 0.04 in1.0 mm 0.12 in3.0 mm 0.04 in1.0 mm
01:40 AM 65.8°F18.8°C 60.3°F15.7°C 82% 3.0 mph NW4.8 kmh NW 9.0 mph14.5 kmh 29.82 in1009.8 mb 0.03 in0.8 mm 0.00 in0.0 mm 0.03 in0.8 mm
01:35 AM 66.6°F19.2°C 60.3°F15.7°C 80% 2.0 mph NW3.2 kmh NW 9.0 mph14.5 kmh 29.82 in1009.8 mb 0.03 in0.8 mm 0.00 in0.0 mm 0.03 in0.8 mm
01:30 AM 67.6°F19.8°C 60.3°F15.7°C 77% 3.0 mph WSW4.8 kmh WSW 16.0 mph25.7 kmh 29.82 in1009.8 mb 0.03 in0.8 mm 0.12 in3.0 mm 0.03 in0.8 mm
01:25 AM 69.3°F20.7°C 59.9°F15.5°C 72% 4.0 mph WSW6.4 kmh WSW 16.0 mph25.7 kmh 29.82 in1009.8 mb 0.02 in0.5 mm 0.24 in6.1 mm 0.02 in0.5 mm
01:20 AM 71.1°F21.7°C 58.6°F14.8°C 65% 4.0 mph W6.4 kmh W 12.0 mph19.3 kmh 29.82 in1009.8 mb 0.00 in0.0 mm 0.00 in0.0 mm 0.00 in0.0 mm
01:15 AM 71.8°F22.1°C 57.6°F14.2°C 61% 4.0 mph WNW6.4 kmh WNW 12.0 mph19.3 kmh 29.81 in1009.5 mb 0.00 in0.0 mm 0.00 in0.0 mm 0.00 in0.0 mm
01:10 AM 71.8°F22.1°C 56.7°F13.7°C 59% 3.0 mph WSW4.8 kmh WSW 12.0 mph19.3 kmh 29.81 in1009.5 mb 0.00 in0.0 mm 0.00 in0.0 mm 0.00 in0.0 mm
01:05 AM 71.4°F21.9°C 56.3°F13.5°C 59% 2.0 mph WSW3.2 kmh WSW 11.0 mph17.7 kmh 29.81 in1009.5 mb 0.00 in0.0 mm 0.00 in0.0 mm 0.00 in0.0 mm
01:00 AM 70.7°F21.5°C 55.6°F13.1°C 59% 1.0 mph WSW1.6 kmh WSW 8.0 mph12.9 kmh 29.81 in1009.5 mb 0.00 in0.0 mm 0.00 in0.0 mm 0.00 in0.0 mm
12:55 AM 70.2°F21.2°C 56.5°F13.6°C 62% Calm Calm 4.0 mph6.4 kmh 29.81 in1009.5 mb 0.00 in0.0 mm 0.00 in0.0 mm 0.00 in0.0 mm
12:50 AM 69.8°F21.0°C 56.7°F13.7°C 63% Calm Calm 3.0 mph4.8 kmh 29.81 in1009.5 mb 0.00 in0.0 mm 0.00 in0.0 mm 0.00 in0.0 mm
12:45 AM 69.6°F20.9°C 56.5°F13.6°C 63% Calm Calm 3.0 mph4.8 kmh 29.80 in1009.1 mb 0.00 in0.0 mm 0.00 in0.0 mm 0.00 in0.0 mm
12:40 AM 69.4°F20.8°C 56.3°F13.5°C 63% Calm Calm 3.0 mph4.8 kmh 29.80 in1009.1 mb 0.00 in0.0 mm 0.00 in0.0 mm 0.00 in0.0 mm
12:35 AM 69.3°F20.7°C 56.7°F13.7°C 64% Calm Calm 2.0 mph3.2 kmh 29.80 in1009.1 mb 0.00 in0.0 mm 0.00 in0.0 mm 0.00 in0.0 mm
12:30 AM 69.1°F20.6°C 56.8°F13.8°C 65% Calm Calm 2.0 mph3.2 kmh 29.80 in1009.1 mb 0.00 in0.0 mm 0.00 in0.0 mm 0.00 in0.0 mm
12:25 AM 69.1°F20.6°C 56.8°F13.8°C 65% Calm Calm 1.0 mph1.6 kmh 29.79 in1008.8 mb 0.00 in0.0 mm 0.00 in0.0 mm 0.00 in0.0 mm
12:20 AM 69.6°F20.9°C 56.8°F13.8°C 64% Calm Calm 1.0 mph1.6 kmh 29.79 in1008.8 mb 0.00 in0.0 mm 0.00 in0.0 mm 0.00 in0.0 mm
12:15 AM 70.0°F21.1°C 56.7°F13.7°C 63% Calm Calm 1.0 mph1.6 kmh 29.78 in1008.5 mb 0.00 in0.0 mm 0.00 in0.0 mm 0.00 in0.0 mm
12:10 AM 70.2°F21.2°C 56.5°F13.6°C 62% Calm Calm 1.0 mph1.6 kmh 29.78 in1008.5 mb 0.00 in0.0 mm 0.00 in0.0 mm 0.00 in0.0 mm
12:05 AM 70.5°F21.4°C 56.5°F13.6°C 61% Calm Calm 1.0 mph1.6 kmh 29.77 in1008.1 mb 0.00 in0.0 mm 0.00 in0.0 mm 0.00 in0.0 mm
12:00 AM 71.2°F21.8°C 56.7°F13.7°C 60% Calm Calm -- 29.76 in1007.8 mb 0.00 in0.0 mm 0.00 in0.0 mm 0.00 in0.0 mm